sensor_id;sensor_type;location;lat;lon;timestamp;P1;durP1;ratioP1;P2;durP2;ratioP2
8564;SDS011;4320;51.498;6.556;2023-04-03T00:01:28;17.07;;;11.20;;
8564;SDS011;4320;51.498;6.556;2023-04-03T00:03:54;16.80;;;11.40;;
8564;SDS011;4320;51.498;6.556;2023-04-03T00:06:20;18.90;;;12.63;;
8564;SDS011;4320;51.498;6.556;2023-04-03T00:08:47;21.30;;;14.47;;
8564;SDS011;4320;51.498;6.556;2023-04-03T00:11:12;26.73;;;15.67;;
8564;SDS011;4320;51.498;6.556;2023-04-03T00:13:38;25.73;;;16.23;;
8564;SDS011;4320;51.498;6.556;2023-04-03T00:16:05;34.27;;;15.33;;
8564;SDS011;4320;51.498;6.556;2023-04-03T00:18:31;18.43;;;13.00;;
8564;SDS011;4320;51.498;6.556;2023-04-03T00:20:57;21.87;;;12.70;;
8564;SDS011;4320;51.498;6.556;2023-04-03T00:23:23;14.80;;;10.37;;
8564;SDS011;4320;51.498;6.556;2023-04-03T00:25:49;18.37;;;11.23;;
8564;SDS011;4320;51.498;6.556;2023-04-03T00:28:15;13.87;;;9.97;;
8564;SDS011;4320;51.498;6.556;2023-04-03T00:30:41;12.23;;;8.57;;
8564;SDS011;4320;51.498;6.556;2023-04-03T00:33:06;11.50;;;7.73;;
8564;SDS011;4320;51.498;6.556;2023-04-03T00:35:33;12.60;;;7.37;;
8564;SDS011;4320;51.498;6.556;2023-04-03T00:37:59;7.73;;;6.43;;
8564;SDS011;4320;51.498;6.556;2023-04-03T00:40:26;9.93;;;6.00;;
8564;SDS011;4320;51.498;6.556;2023-04-03T00:42:56;8.30;;;6.43;;
8564;SDS011;4320;51.498;6.556;2023-04-03T00:45:28;7.27;;;5.83;;
8564;SDS011;4320;51.498;6.556;2023-04-03T00:47:57;8.30;;;6.00;;
8564;SDS011;4320;51.498;6.556;2023-04-03T00:50:25;7.40;;;5.80;;
8564;SDS011;4320;51.498;6.556;2023-04-03T00:52:52;7.43;;;5.93;;
8564;SDS011;4320;51.498;6.556;2023-04-03T00:55:19;8.13;;;6.13;;
8564;SDS011;4320;51.498;6.556;2023-04-03T00:57:45;7.20;;;6.27;;
8564;SDS011;4320;51.498;6.556;2023-04-03T01:00:12;8.10;;;6.03;;
8564;SDS011;4320;51.498;6.556;2023-04-03T01:02:41;7.30;;;5.43;;
8564;SDS011;4320;51.498;6.556;2023-04-03T01:05:07;9.73;;;5.80;;
8564;SDS011;4320;51.498;6.556;2023-04-03T01:07:33;10.90;;;5.70;;
8564;SDS011;4320;51.498;6.556;2023-04-03T01:10:03;7.97;;;5.73;;
8564;SDS011;4320;51.498;6.556;2023-04-03T01:12:34;9.40;;;5.80;;
8564;SDS011;4320;51.498;6.556;2023-04-03T01:15:11;7.23;;;5.20;;
8564;SDS011;4320;51.498;6.556;2023-04-03T01:17:41;8.40;;;5.13;;
8564;SDS011;4320;51.498;6.556;2023-04-03T01:25:31;8.10;;;4.93;;
8564;SDS011;4320;51.498;6.556;2023-04-03T01:27:57;10.20;;;4.60;;
8564;SDS011;4320;51.498;6.556;2023-04-03T01:30:24;4.30;;;3.90;;
8564;SDS011;4320;51.498;6.556;2023-04-03T01:33:00;5.43;;;3.83;;
8564;SDS011;4320;51.498;6.556;2023-04-03T01:35:26;4.90;;;3.80;;
8564;SDS011;4320;51.498;6.556;2023-04-03T01:37:51;6.67;;;3.30;;
8564;SDS011;4320;51.498;6.556;2023-04-03T01:40:17;4.83;;;3.70;;
8564;SDS011;4320;51.498;6.556;2023-04-03T01:42:43;8.50;;;3.10;;
8564;SDS011;4320;51.498;6.556;2023-04-03T01:45:09;4.20;;;3.27;;
8564;SDS011;4320;51.498;6.556;2023-04-03T01:47:35;3.03;;;2.73;;
8564;SDS011;4320;51.498;6.556;2023-04-03T01:50:00;4.47;;;3.30;;
8564;SDS011;4320;51.498;6.556;2023-04-03T01:52:26;4.23;;;2.87;;
8564;SDS011;4320;51.498;6.556;2023-04-03T01:54:52;5.23;;;3.40;;
8564;SDS011;4320;51.498;6.556;2023-04-03T01:57:17;6.50;;;3.33;;
8564;SDS011;4320;51.498;6.556;2023-04-03T01:59:43;3.83;;;2.73;;
8564;SDS011;4320;51.498;6.556;2023-04-03T02:02:08;4.00;;;2.90;;
8564;SDS011;4320;51.498;6.556;2023-04-03T02:04:34;3.67;;;2.87;;
8564;SDS011;4320;51.498;6.556;2023-04-03T02:07:00;3.67;;;2.53;;
8564;SDS011;4320;51.498;6.556;2023-04-03T02:09:25;5.73;;;2.70;;
8564;SDS011;4320;51.498;6.556;2023-04-03T02:11:51;6.13;;;2.47;;
8564;SDS011;4320;51.498;6.556;2023-04-03T02:14:18;4.93;;;2.73;;
8564;SDS011;4320;51.498;6.556;2023-04-03T02:16:43;5.37;;;2.80;;
8564;SDS011;4320;51.498;6.556;2023-04-03T02:19:09;5.47;;;2.67;;
8564;SDS011;4320;51.498;6.556;2023-04-03T02:21:35;5.50;;;3.13;;
8564;SDS011;4320;51.498;6.556;2023-04-03T02:24:01;4.17;;;2.43;;
8564;SDS011;4320;51.498;6.556;2023-04-03T02:26:26;4.13;;;2.47;;
8564;SDS011;4320;51.498;6.556;2023-04-03T02:28:52;5.47;;;2.77;;
8564;SDS011;4320;51.498;6.556;2023-04-03T02:31:17;8.03;;;2.67;;
8564;SDS011;4320;51.498;6.556;2023-04-03T02:33:43;5.73;;;2.70;;
8564;SDS011;4320;51.498;6.556;2023-04-03T02:36:09;3.47;;;2.53;;
8564;SDS011;4320;51.498;6.556;2023-04-03T02:38:35;5.93;;;2.70;;
8564;SDS011;4320;51.498;6.556;2023-04-03T02:41:05;4.23;;;2.60;;
8564;SDS011;4320;51.498;6.556;2023-04-03T02:43:32;5.90;;;2.77;;
8564;SDS011;4320;51.498;6.556;2023-04-03T02:45:58;8.63;;;2.50;;
8564;SDS011;4320;51.498;6.556;2023-04-03T02:48:23;4.93;;;2.63;;
8564;SDS011;4320;51.498;6.556;2023-04-03T02:50:49;6.77;;;2.67;;
8564;SDS011;4320;51.498;6.556;2023-04-03T02:53:15;7.60;;;3.53;;
8564;SDS011;4320;51.498;6.556;2023-04-03T02:55:41;3.03;;;2.13;;
8564;SDS011;4320;51.498;6.556;2023-04-03T02:58:07;5.43;;;2.60;;
8564;SDS011;4320;51.498;6.556;2023-04-03T03:00:33;3.93;;;2.30;;
8564;SDS011;4320;51.498;6.556;2023-04-03T03:02:59;5.73;;;2.50;;
8564;SDS011;4320;51.498;6.556;2023-04-03T03:05:25;8.17;;;2.93;;
8564;SDS011;4320;51.498;6.556;2023-04-03T03:07:52;7.43;;;2.90;;
8564;SDS011;4320;51.498;6.556;2023-04-03T03:10:18;4.37;;;2.67;;
8564;SDS011;4320;51.498;6.556;2023-04-03T03:12:44;4.00;;;2.17;;
8564;SDS011;4320;51.498;6.556;2023-04-03T03:15:09;4.13;;;1.90;;
8564;SDS011;4320;51.498;6.556;2023-04-03T03:17:36;4.57;;;2.20;;
8564;SDS011;4320;51.498;6.556;2023-04-03T03:20:02;4.00;;;2.10;;
8564;SDS011;4320;51.498;6.556;2023-04-03T03:22:28;2.73;;;2.07;;
8564;SDS011;4320;51.498;6.556;2023-04-03T03:24:54;3.83;;;2.03;;
8564;SDS011;4320;51.498;6.556;2023-04-03T03:27:20;3.67;;;1.90;;
8564;SDS011;4320;51.498;6.556;2023-04-03T03:29:46;4.73;;;2.63;;
8564;SDS011;4320;51.498;6.556;2023-04-03T03:32:12;5.30;;;2.30;;
8564;SDS011;4320;51.498;6.556;2023-04-03T03:34:37;2.87;;;2.17;;
8564;SDS011;4320;51.498;6.556;2023-04-03T03:37:03;5.17;;;2.10;;
8564;SDS011;4320;51.498;6.556;2023-04-03T03:39:29;3.57;;;2.40;;
8564;SDS011;4320;51.498;6.556;2023-04-03T03:41:55;7.60;;;2.30;;
8564;SDS011;4320;51.498;6.556;2023-04-03T03:44:20;2.57;;;2.00;;
8564;SDS011;4320;51.498;6.556;2023-04-03T03:46:46;7.07;;;2.30;;
8564;SDS011;4320;51.498;6.556;2023-04-03T03:49:12;2.60;;;2.07;;
8564;SDS011;4320;51.498;6.556;2023-04-03T03:51:38;6.60;;;2.83;;
8564;SDS011;4320;51.498;6.556;2023-04-03T03:54:04;3.90;;;2.23;;
8564;SDS011;4320;51.498;6.556;2023-04-03T03:56:30;4.30;;;2.07;;
8564;SDS011;4320;51.498;6.556;2023-04-03T03:58:56;3.83;;;2.10;;
8564;SDS011;4320;51.498;6.556;2023-04-03T04:01:22;6.33;;;1.90;;
8564;SDS011;4320;51.498;6.556;2023-04-03T04:03:48;6.93;;;2.40;;
8564;SDS011;4320;51.498;6.556;2023-04-03T04:06:14;5.93;;;2.20;;
8564;SDS011;4320;51.498;6.556;2023-04-03T04:08:41;5.00;;;2.13;;
8564;SDS011;4320;51.498;6.556;2023-04-03T04:11:06;5.67;;;2.03;;
8564;SDS011;4320;51.498;6.556;2023-04-03T04:13:33;4.43;;;2.00;;
8564;SDS011;4320;51.498;6.556;2023-04-03T04:15:58;6.00;;;2.27;;
8564;SDS011;4320;51.498;6.556;2023-04-03T04:18:24;4.37;;;1.97;;
8564;SDS011;4320;51.498;6.556;2023-04-03T04:20:50;3.33;;;1.90;;
8564;SDS011;4320;51.498;6.556;2023-04-03T04:23:16;6.47;;;2.07;;
8564;SDS011;4320;51.498;6.556;2023-04-03T04:25:46;5.30;;;1.83;;
8564;SDS011;4320;51.498;6.556;2023-04-03T04:28:13;7.27;;;2.20;;
8564;SDS011;4320;51.498;6.556;2023-04-03T04:30:39;4.13;;;2.00;;
8564;SDS011;4320;51.498;6.556;2023-04-03T04:33:04;2.60;;;1.70;;
8564;SDS011;4320;51.498;6.556;2023-04-03T04:35:30;6.87;;;2.13;;
8564;SDS011;4320;51.498;6.556;2023-04-03T04:37:56;7.37;;;2.90;;
8564;SDS011;4320;51.498;6.556;2023-04-03T04:40:21;6.63;;;2.50;;
8564;SDS011;4320;51.498;6.556;2023-04-03T04:42:47;5.13;;;3.07;;
8564;SDS011;4320;51.498;6.556;2023-04-03T04:45:13;5.00;;;2.87;;
8564;SDS011;4320;51.498;6.556;2023-04-03T04:47:40;9.23;;;3.70;;
8564;SDS011;4320;51.498;6.556;2023-04-03T04:50:06;8.47;;;2.87;;
8564;SDS011;4320;51.498;6.556;2023-04-03T04:52:32;4.17;;;3.00;;
8564;SDS011;4320;51.498;6.556;2023-04-03T04:54:57;6.47;;;3.17;;
8564;SDS011;4320;51.498;6.556;2023-04-03T04:57:23;11.13;;;3.77;;
8564;SDS011;4320;51.498;6.556;2023-04-03T04:59:48;6.93;;;3.77;;
8564;SDS011;4320;51.498;6.556;2023-04-03T05:02:14;8.10;;;3.10;;
8564;SDS011;4320;51.498;6.556;2023-04-03T05:04:40;2.60;;;2.13;;
8564;SDS011;4320;51.498;6.556;2023-04-03T05:07:06;4.87;;;2.27;;
8564;SDS011;4320;51.498;6.556;2023-04-03T05:09:31;6.47;;;3.20;;
8564;SDS011;4320;51.498;6.556;2023-04-03T05:11:57;4.77;;;2.87;;
8564;SDS011;4320;51.498;6.556;2023-04-03T05:14:23;9.60;;;3.37;;
8564;SDS011;4320;51.498;6.556;2023-04-03T05:16:48;5.20;;;2.40;;
8564;SDS011;4320;51.498;6.556;2023-04-03T05:19:17;10.17;;;3.77;;
8564;SDS011;4320;51.498;6.556;2023-04-03T05:21:43;9.47;;;4.30;;
8564;SDS011;4320;51.498;6.556;2023-04-03T05:24:09;10.13;;;3.90;;
8564;SDS011;4320;51.498;6.556;2023-04-03T05:26:34;12.73;;;3.83;;
8564;SDS011;4320;51.498;6.556;2023-04-03T05:29:00;7.30;;;3.57;;
8564;SDS011;4320;51.498;6.556;2023-04-03T05:31:26;5.70;;;2.93;;
8564;SDS011;4320;51.498;6.556;2023-04-03T05:33:54;6.23;;;2.83;;
8564;SDS011;4320;51.498;6.556;2023-04-03T05:36:20;8.03;;;3.33;;
8564;SDS011;4320;51.498;6.556;2023-04-03T05:38:46;7.03;;;2.80;;
8564;SDS011;4320;51.498;6.556;2023-04-03T05:41:12;7.17;;;2.70;;
8564;SDS011;4320;51.498;6.556;2023-04-03T05:43:39;4.67;;;2.53;;
8564;SDS011;4320;51.498;6.556;2023-04-03T05:46:14;5.80;;;2.80;;
8564;SDS011;4320;51.498;6.556;2023-04-03T05:48:42;5.23;;;2.60;;
8564;SDS011;4320;51.498;6.556;2023-04-03T05:51:13;8.70;;;2.80;;
8564;SDS011;4320;51.498;6.556;2023-04-03T05:53:44;4.23;;;2.67;;
8564;SDS011;4320;51.498;6.556;2023-04-03T05:56:11;8.27;;;2.80;;
8564;SDS011;4320;51.498;6.556;2023-04-03T05:58:37;3.23;;;2.20;;
8564;SDS011;4320;51.498;6.556;2023-04-03T06:01:03;6.90;;;2.50;;
8564;SDS011;4320;51.498;6.556;2023-04-03T06:03:28;6.30;;;2.47;;
8564;SDS011;4320;51.498;6.556;2023-04-03T06:05:54;4.93;;;2.20;;
8564;SDS011;4320;51.498;6.556;2023-04-03T06:08:20;3.83;;;2.10;;
8564;SDS011;4320;51.498;6.556;2023-04-03T06:10:46;4.17;;;2.17;;
8564;SDS011;4320;51.498;6.556;2023-04-03T06:13:11;4.17;;;2.07;;
8564;SDS011;4320;51.498;6.556;2023-04-03T06:15:37;6.40;;;2.30;;
8564;SDS011;4320;51.498;6.556;2023-04-03T06:18:04;5.27;;;2.10;;
8564;SDS011;4320;51.498;6.556;2023-04-03T06:20:30;2.73;;;1.90;;
8564;SDS011;4320;51.498;6.556;2023-04-03T06:22:56;5.17;;;2.40;;
8564;SDS011;4320;51.498;6.556;2023-04-03T06:25:22;4.93;;;2.27;;
8564;SDS011;4320;51.498;6.556;2023-04-03T06:27:47;6.80;;;2.67;;
8564;SDS011;4320;51.498;6.556;2023-04-03T06:30:13;5.40;;;2.37;;
8564;SDS011;4320;51.498;6.556;2023-04-03T06:32:39;4.80;;;2.33;;
8564;SDS011;4320;51.498;6.556;2023-04-03T06:35:05;4.77;;;2.40;;
8564;SDS011;4320;51.498;6.556;2023-04-03T06:37:31;6.77;;;2.37;;
8564;SDS011;4320;51.498;6.556;2023-04-03T06:39:57;4.27;;;1.93;;
8564;SDS011;4320;51.498;6.556;2023-04-03T06:42:23;6.97;;;2.90;;
8564;SDS011;4320;51.498;6.556;2023-04-03T06:44:49;5.63;;;2.90;;
8564;SDS011;4320;51.498;6.556;2023-04-03T06:47:15;7.67;;;3.10;;
8564;SDS011;4320;51.498;6.556;2023-04-03T06:49:42;5.80;;;2.80;;
8564;SDS011;4320;51.498;6.556;2023-04-03T06:52:08;6.57;;;2.40;;
8564;SDS011;4320;51.498;6.556;2023-04-03T06:54:34;8.00;;;2.87;;
8564;SDS011;4320;51.498;6.556;2023-04-03T06:57:00;10.00;;;3.33;;
8564;SDS011;4320;51.498;6.556;2023-04-03T06:59:26;6.60;;;2.80;;
8564;SDS011;4320;51.498;6.556;2023-04-03T07:01:52;7.22;;;2.70;;
8564;SDS011;4320;51.498;6.556;2023-04-03T07:04:18;4.75;;;2.40;;
8564;SDS011;4320;51.498;6.556;2023-04-03T07:06:45;4.50;;;2.42;;
8564;SDS011;4320;51.498;6.556;2023-04-03T07:09:11;4.20;;;2.42;;
8564;SDS011;4320;51.498;6.556;2023-04-03T07:11:38;6.40;;;2.75;;
8564;SDS011;4320;51.498;6.556;2023-04-03T07:14:04;4.07;;;2.65;;
8564;SDS011;4320;51.498;6.556;2023-04-03T07:16:31;3.63;;;2.30;;
8564;SDS011;4320;51.498;6.556;2023-04-03T07:18:57;2.92;;;2.22;;
8564;SDS011;4320;51.498;6.556;2023-04-03T07:21:23;3.58;;;2.25;;
8564;SDS011;4320;51.498;6.556;2023-04-03T07:23:49;5.68;;;2.33;;
8564;SDS011;4320;51.498;6.556;2023-04-03T07:26:15;3.72;;;2.20;;
8564;SDS011;4320;51.498;6.556;2023-04-03T07:28:40;5.97;;;2.40;;
8564;SDS011;4320;51.498;6.556;2023-04-03T07:31:07;4.00;;;2.40;;
8564;SDS011;4320;51.498;6.556;2023-04-03T07:33:36;6.82;;;2.42;;
8564;SDS011;4320;51.498;6.556;2023-04-03T07:36:02;3.47;;;2.20;;
8564;SDS011;4320;51.498;6.556;2023-04-03T07:38:28;5.05;;;2.30;;
8564;SDS011;4320;51.498;6.556;2023-04-03T07:40:54;5.75;;;2.35;;
8564;SDS011;4320;51.498;6.556;2023-04-03T07:43:20;6.03;;;2.50;;
8564;SDS011;4320;51.498;6.556;2023-04-03T07:45:47;6.00;;;2.60;;
8564;SDS011;4320;51.498;6.556;2023-04-03T07:48:21;5.60;;;2.15;;
8564;SDS011;4320;51.498;6.556;2023-04-03T07:50:48;5.50;;;2.33;;
8564;SDS011;4320;51.498;6.556;2023-04-03T07:53:14;4.47;;;2.28;;
8564;SDS011;4320;51.498;6.556;2023-04-03T07:55:40;5.60;;;2.45;;
8564;SDS011;4320;51.498;6.556;2023-04-03T07:58:13;4.25;;;2.10;;
8564;SDS011;4320;51.498;6.556;2023-04-03T08:00:40;7.65;;;3.35;;
8564;SDS011;4320;51.498;6.556;2023-04-03T08:03:07;7.25;;;3.47;;
8564;SDS011;4320;51.498;6.556;2023-04-03T08:05:38;7.47;;;2.75;;
8564;SDS011;4320;51.498;6.556;2023-04-03T08:08:06;9.82;;;3.85;;
8564;SDS011;4320;51.498;6.556;2023-04-03T08:10:33;4.60;;;2.40;;
8564;SDS011;4320;51.498;6.556;2023-04-03T08:12:59;6.25;;;2.75;;
8564;SDS011;4320;51.498;6.556;2023-04-03T08:15:26;5.32;;;2.83;;
8564;SDS011;4320;51.498;6.556;2023-04-03T08:17:51;3.72;;;2.00;;
8564;SDS011;4320;51.498;6.556;2023-04-03T08:20:18;5.43;;;2.78;;
8564;SDS011;4320;51.498;6.556;2023-04-03T08:22:43;5.03;;;2.50;;
8564;SDS011;4320;51.498;6.556;2023-04-03T08:25:12;4.28;;;2.22;;
8564;SDS011;4320;51.498;6.556;2023-04-03T08:27:38;5.05;;;2.60;;
8564;SDS011;4320;51.498;6.556;2023-04-03T08:30:04;10.40;;;3.78;;
8564;SDS011;4320;51.498;6.556;2023-04-03T08:32:31;3.42;;;2.10;;
8564;SDS011;4320;51.498;6.556;2023-04-03T08:34:58;6.80;;;3.42;;
8564;SDS011;4320;51.498;6.556;2023-04-03T08:37:23;3.42;;;1.95;;
8564;SDS011;4320;51.498;6.556;2023-04-03T08:39:49;8.50;;;3.17;;
8564;SDS011;4320;51.498;6.556;2023-04-03T08:42:16;6.88;;;2.50;;
8564;SDS011;4320;51.498;6.556;2023-04-03T08:47:53;5.30;;;1.90;;
8564;SDS011;4320;51.498;6.556;2023-04-03T08:50:30;3.50;;;2.20;;
8564;SDS011;4320;51.498;6.556;2023-04-03T08:53:00;6.45;;;2.05;;
8564;SDS011;4320;51.498;6.556;2023-04-03T08:55:29;4.78;;;2.63;;
8564;SDS011;4320;51.498;6.556;2023-04-03T09:00:51;3.15;;;1.90;;
8564;SDS011;4320;51.498;6.556;2023-04-03T09:03:19;8.20;;;3.55;;
8564;SDS011;4320;51.498;6.556;2023-04-03T09:05:51;8.52;;;3.22;;
8564;SDS011;4320;51.498;6.556;2023-04-03T09:08:24;3.63;;;2.20;;
8564;SDS011;4320;51.498;6.556;2023-04-03T09:11:05;5.18;;;3.05;;
8564;SDS011;4320;51.498;6.556;2023-04-03T09:18:57;4.22;;;1.77;;
8564;SDS011;4320;51.498;6.556;2023-04-03T09:21:48;1.98;;;1.30;;
8564;SDS011;4320;51.498;6.556;2023-04-03T09:24:14;3.08;;;1.90;;
8564;SDS011;4320;51.498;6.556;2023-04-03T09:29:40;2.83;;;1.55;;
8564;SDS011;4320;51.498;6.556;2023-04-03T09:35:01;2.47;;;1.60;;
8564;SDS011;4320;51.498;6.556;2023-04-03T09:37:40;3.28;;;1.55;;
8564;SDS011;4320;51.498;6.556;2023-04-03T09:42:56;2.80;;;1.38;;
8564;SDS011;4320;51.498;6.556;2023-04-03T09:48:12;3.42;;;1.40;;
8564;SDS011;4320;51.498;6.556;2023-04-03T09:53:40;1.30;;;1.20;;
8564;SDS011;4320;51.498;6.556;2023-04-03T09:58:39;2.90;;;1.50;;
8564;SDS011;4320;51.498;6.556;2023-04-03T10:01:19;1.40;;;1.30;;
8564;SDS011;4320;51.498;6.556;2023-04-03T10:03:46;5.47;;;1.25;;
8564;SDS011;4320;51.498;6.556;2023-04-03T10:06:38;1.95;;;1.60;;
8564;SDS011;4320;51.498;6.556;2023-04-03T10:09:16;2.13;;;1.50;;
8564;SDS011;4320;51.498;6.556;2023-04-03T10:11:57;2.58;;;1.30;;
8564;SDS011;4320;51.498;6.556;2023-04-03T10:20:09;3.25;;;1.30;;
8564;SDS011;4320;51.498;6.556;2023-04-03T10:25:14;1.88;;;1.35;;
8564;SDS011;4320;51.498;6.556;2023-04-03T10:33:31;1.65;;;1.23;;
8564;SDS011;4320;51.498;6.556;2023-04-03T10:39:02;2.00;;;1.23;;
8564;SDS011;4320;51.498;6.556;2023-04-03T10:44:20;2.50;;;1.00;;
8564;SDS011;4320;51.498;6.556;2023-04-03T10:47:06;1.33;;;1.00;;
8564;SDS011;4320;51.498;6.556;2023-04-03T10:52:14;2.88;;;1.20;;
8564;SDS011;4320;51.498;6.556;2023-04-03T10:57:56;1.02;;;0.95;;
8564;SDS011;4320;51.498;6.556;2023-04-03T11:00:30;4.00;;;1.50;;
8564;SDS011;4320;51.498;6.556;2023-04-03T11:03:53;1.80;;;1.20;;
8564;SDS011;4320;51.498;6.556;2023-04-03T11:06:02;2.47;;;1.20;;
8564;SDS011;4320;51.498;6.556;2023-04-03T11:11:17;3.60;;;1.42;;
8564;SDS011;4320;51.498;6.556;2023-04-03T11:13:51;6.38;;;1.42;;
8564;SDS011;4320;51.498;6.556;2023-04-03T11:16:23;2.70;;;2.03;;
8564;SDS011;4320;51.498;6.556;2023-04-03T11:18:52;2.17;;;1.30;;
8564;SDS011;4320;51.498;6.556;2023-04-03T11:23:59;1.63;;;1.30;;
8564;SDS011;4320;51.498;6.556;2023-04-03T11:26:35;1.95;;;1.55;;
8564;SDS011;4320;51.498;6.556;2023-04-03T11:29:06;5.40;;;1.70;;
8564;SDS011;4320;51.498;6.556;2023-04-03T11:31:45;1.38;;;1.27;;
8564;SDS011;4320;51.498;6.556;2023-04-03T11:42:34;2.60;;;1.63;;
8564;SDS011;4320;51.498;6.556;2023-04-03T11:45:24;1.45;;;1.20;;
8564;SDS011;4320;51.498;6.556;2023-04-03T11:47:57;1.73;;;1.63;;
8564;SDS011;4320;51.498;6.556;2023-04-03T11:50:46;1.52;;;1.33;;
8564;SDS011;4320;51.498;6.556;2023-04-03T12:05:48;2.25;;;1.58;;
8564;SDS011;4320;51.498;6.556;2023-04-03T12:14:23;3.08;;;1.52;;
8564;SDS011;4320;51.498;6.556;2023-04-03T12:19:27;2.65;;;1.50;;
8564;SDS011;4320;51.498;6.556;2023-04-03T12:24:58;2.33;;;1.60;;
8564;SDS011;4320;51.498;6.556;2023-04-03T12:40:50;2.08;;;1.38;;
8564;SDS011;4320;51.498;6.556;2023-04-03T12:46:38;4.13;;;1.50;;
8564;SDS011;4320;51.498;6.556;2023-04-03T12:49:14;2.80;;;1.60;;
8564;SDS011;4320;51.498;6.556;2023-04-03T12:51:44;2.58;;;1.67;;
8564;SDS011;4320;51.498;6.556;2023-04-03T12:59:45;3.22;;;1.33;;
8564;SDS011;4320;51.498;6.556;2023-04-03T13:02:28;4.93;;;1.45;;
8564;SDS011;4320;51.498;6.556;2023-04-03T13:04:59;1.45;;;1.35;;
8564;SDS011;4320;51.498;6.556;2023-04-03T13:07:34;2.38;;;1.40;;
8564;SDS011;4320;51.498;6.556;2023-04-03T13:10:13;4.35;;;1.50;;
8564;SDS011;4320;51.498;6.556;2023-04-03T13:12:48;2.22;;;1.52;;
8564;SDS011;4320;51.498;6.556;2023-04-03T13:15:23;5.30;;;3.25;;
8564;SDS011;4320;51.498;6.556;2023-04-03T13:17:51;3.58;;;2.40;;
8564;SDS011;4320;51.498;6.556;2023-04-03T13:20:23;2.95;;;1.73;;
8564;SDS011;4320;51.498;6.556;2023-04-03T13:22:51;2.40;;;1.80;;
8564;SDS011;4320;51.498;6.556;2023-04-03T13:25:21;1.98;;;1.45;;
8564;SDS011;4320;51.498;6.556;2023-04-03T13:27:49;4.50;;;1.70;;
8564;SDS011;4320;51.498;6.556;2023-04-03T13:30:34;2.97;;;1.52;;
8564;SDS011;4320;51.498;6.556;2023-04-03T13:33:05;1.20;;;1.10;;
8564;SDS011;4320;51.498;6.556;2023-04-03T13:35:45;3.63;;;1.55;;
8564;SDS011;4320;51.498;6.556;2023-04-03T13:40:55;3.90;;;2.00;;
8564;SDS011;4320;51.498;6.556;2023-04-03T13:43:24;2.72;;;1.42;;
8564;SDS011;4320;51.498;6.556;2023-04-03T13:48:40;2.20;;;1.60;;
8564;SDS011;4320;51.498;6.556;2023-04-03T13:53:48;2.92;;;1.40;;
8564;SDS011;4320;51.498;6.556;2023-04-03T14:04:29;2.10;;;1.48;;
8564;SDS011;4320;51.498;6.556;2023-04-03T14:06:56;2.78;;;1.40;;
8564;SDS011;4320;51.498;6.556;2023-04-03T14:09:23;1.40;;;1.20;;
8564;SDS011;4320;51.498;6.556;2023-04-03T14:11:52;2.95;;;2.05;;
8564;SDS011;4320;51.498;6.556;2023-04-03T14:14:21;1.98;;;1.45;;
8564;SDS011;4320;51.498;6.556;2023-04-03T14:16:56;4.63;;;1.52;;
8564;SDS011;4320;51.498;6.556;2023-04-03T14:19:29;2.53;;;1.50;;
8564;SDS011;4320;51.498;6.556;2023-04-03T14:21:57;3.55;;;1.38;;
8564;SDS011;4320;51.498;6.556;2023-04-03T14:24:24;1.90;;;1.50;;
8564;SDS011;4320;51.498;6.556;2023-04-03T14:26:51;4.10;;;1.70;;
8564;SDS011;4320;51.498;6.556;2023-04-03T14:29:18;2.28;;;1.58;;
8564;SDS011;4320;51.498;6.556;2023-04-03T14:31:46;2.50;;;1.45;;
8564;SDS011;4320;51.498;6.556;2023-04-03T14:34:12;3.67;;;1.80;;
8564;SDS011;4320;51.498;6.556;2023-04-03T14:36:40;2.17;;;1.30;;
8564;SDS011;4320;51.498;6.556;2023-04-03T14:39:08;1.98;;;1.35;;
8564;SDS011;4320;51.498;6.556;2023-04-03T14:41:41;2.38;;;1.20;;
8564;SDS011;4320;51.498;6.556;2023-04-03T14:44:07;2.30;;;1.30;;
8564;SDS011;4320;51.498;6.556;2023-04-03T14:46:37;2.70;;;1.30;;
8564;SDS011;4320;51.498;6.556;2023-04-03T14:49:11;3.90;;;1.75;;
8564;SDS011;4320;51.498;6.556;2023-04-03T14:51:43;3.15;;;2.00;;
8564;SDS011;4320;51.498;6.556;2023-04-03T14:54:18;5.63;;;1.95;;
8564;SDS011;4320;51.498;6.556;2023-04-03T14:56:50;2.05;;;1.40;;
8564;SDS011;4320;51.498;6.556;2023-04-03T14:59:16;4.47;;;2.00;;
8564;SDS011;4320;51.498;6.556;2023-04-03T15:01:44;2.55;;;1.60;;
8564;SDS011;4320;51.498;6.556;2023-04-03T15:04:14;3.50;;;1.48;;
8564;SDS011;4320;51.498;6.556;2023-04-03T15:06:41;2.33;;;1.73;;
8564;SDS011;4320;51.498;6.556;2023-04-03T15:09:19;2.50;;;1.40;;
8564;SDS011;4320;51.498;6.556;2023-04-03T15:11:50;3.42;;;1.23;;
8564;SDS011;4320;51.498;6.556;2023-04-03T15:14:17;3.85;;;1.73;;
8564;SDS011;4320;51.498;6.556;2023-04-03T15:16:43;4.85;;;1.77;;
8564;SDS011;4320;51.498;6.556;2023-04-03T15:19:09;3.38;;;1.60;;
8564;SDS011;4320;51.498;6.556;2023-04-03T15:21:36;2.90;;;1.58;;
8564;SDS011;4320;51.498;6.556;2023-04-03T15:24:01;1.77;;;1.38;;
8564;SDS011;4320;51.498;6.556;2023-04-03T15:26:27;1.50;;;1.30;;
8564;SDS011;4320;51.498;6.556;2023-04-03T15:28:54;4.95;;;1.73;;
8564;SDS011;4320;51.498;6.556;2023-04-03T15:31:19;1.77;;;1.20;;
8564;SDS011;4320;51.498;6.556;2023-04-03T15:33:45;1.40;;;1.20;;
8564;SDS011;4320;51.498;6.556;2023-04-03T15:36:11;2.33;;;1.52;;
8564;SDS011;4320;51.498;6.556;2023-04-03T15:38:36;4.25;;;1.70;;
8564;SDS011;4320;51.498;6.556;2023-04-03T15:41:03;2.78;;;1.55;;
8564;SDS011;4320;51.498;6.556;2023-04-03T15:43:29;3.63;;;1.60;;
8564;SDS011;4320;51.498;6.556;2023-04-03T15:45:56;1.70;;;1.23;;
8564;SDS011;4320;51.498;6.556;2023-04-03T15:48:23;2.30;;;1.40;;
8564;SDS011;4320;51.498;6.556;2023-04-03T15:50:49;3.83;;;1.58;;
8564;SDS011;4320;51.498;6.556;2023-04-03T15:53:15;2.10;;;1.45;;
8564;SDS011;4320;51.498;6.556;2023-04-03T15:55:42;2.92;;;1.55;;
8564;SDS011;4320;51.498;6.556;2023-04-03T15:58:08;2.50;;;1.30;;
8564;SDS011;4320;51.498;6.556;2023-04-03T16:00:34;2.17;;;1.40;;
8564;SDS011;4320;51.498;6.556;2023-04-03T16:03:03;3.35;;;1.58;;
8564;SDS011;4320;51.498;6.556;2023-04-03T16:05:31;1.52;;;1.23;;
8564;SDS011;4320;51.498;6.556;2023-04-03T16:07:57;3.28;;;1.50;;
8564;SDS011;4320;51.498;6.556;2023-04-03T16:10:25;4.50;;;2.17;;
8564;SDS011;4320;51.498;6.556;2023-04-03T16:12:51;1.92;;;1.52;;
8564;SDS011;4320;51.498;6.556;2023-04-03T16:15:16;1.48;;;1.20;;
8564;SDS011;4320;51.498;6.556;2023-04-03T16:17:43;2.72;;;1.88;;
8564;SDS011;4320;51.498;6.556;2023-04-03T16:20:10;2.67;;;1.63;;
8564;SDS011;4320;51.498;6.556;2023-04-03T16:22:36;5.65;;;1.83;;
8564;SDS011;4320;51.498;6.556;2023-04-03T16:25:03;3.22;;;2.08;;
8564;SDS011;4320;51.498;6.556;2023-04-03T16:27:30;3.53;;;1.50;;
8564;SDS011;4320;51.498;6.556;2023-04-03T16:29:56;3.58;;;1.85;;
8564;SDS011;4320;51.498;6.556;2023-04-03T16:32:25;2.40;;;1.52;;
8564;SDS011;4320;51.498;6.556;2023-04-03T16:34:53;2.78;;;1.48;;
8564;SDS011;4320;51.498;6.556;2023-04-03T16:37:19;3.15;;;2.00;;
8564;SDS011;4320;51.498;6.556;2023-04-03T16:39:45;3.75;;;2.35;;
8564;SDS011;4320;51.498;6.556;2023-04-03T16:42:11;6.82;;;3.03;;
8564;SDS011;4320;51.498;6.556;2023-04-03T16:44:36;2.50;;;1.92;;
8564;SDS011;4320;51.498;6.556;2023-04-03T16:47:02;4.32;;;1.50;;
8564;SDS011;4320;51.498;6.556;2023-04-03T16:49:28;2.55;;;1.80;;
8564;SDS011;4320;51.498;6.556;2023-04-03T16:52:00;3.88;;;1.83;;
8564;SDS011;4320;51.498;6.556;2023-04-03T16:54:27;5.80;;;1.80;;
8564;SDS011;4320;51.498;6.556;2023-04-03T16:56:53;3.53;;;1.75;;
8564;SDS011;4320;51.498;6.556;2023-04-03T16:59:19;3.60;;;1.60;;
8564;SDS011;4320;51.498;6.556;2023-04-03T17:01:45;4.40;;;1.83;;
8564;SDS011;4320;51.498;6.556;2023-04-03T17:04:10;4.45;;;2.30;;
8564;SDS011;4320;51.498;6.556;2023-04-03T17:06:37;4.75;;;1.83;;
8564;SDS011;4320;51.498;6.556;2023-04-03T17:09:03;2.80;;;1.80;;
8564;SDS011;4320;51.498;6.556;2023-04-03T17:11:29;2.10;;;1.40;;
8564;SDS011;4320;51.498;6.556;2023-04-03T17:13:56;5.25;;;2.30;;
8564;SDS011;4320;51.498;6.556;2023-04-03T17:16:22;4.65;;;2.15;;
8564;SDS011;4320;51.498;6.556;2023-04-03T17:18:48;4.35;;;2.03;;
8564;SDS011;4320;51.498;6.556;2023-04-03T17:21:14;2.90;;;2.00;;
8564;SDS011;4320;51.498;6.556;2023-04-03T17:23:41;5.50;;;1.70;;
8564;SDS011;4320;51.498;6.556;2023-04-03T17:26:09;2.90;;;1.70;;
8564;SDS011;4320;51.498;6.556;2023-04-03T17:28:35;3.15;;;1.70;;
8564;SDS011;4320;51.498;6.556;2023-04-03T17:31:01;5.10;;;2.03;;
8564;SDS011;4320;51.498;6.556;2023-04-03T17:33:27;2.60;;;1.60;;
8564;SDS011;4320;51.498;6.556;2023-04-03T17:35:57;3.75;;;1.88;;